This is the latest recevied weather packets stored in our database for station/object LRCV. If no packets are shown the sender has not sent any weather packets the latest 1 day(s).
| Time | Temp. | Humidity | Pressure | Rain* | Wind** | Luminosity | Snow |
|---|---|---|---|---|---|---|---|
| 1836274117 | 11.11° C | 82% | 1027 hPa | - | 1.34 m/s, 70° | - | - |
| 1778028522 | 10° C | 94% | 1013 hPa | - | 2.68 m/s, 60° | - | - |
| 1778027702 | 10° C | 94% | 1013 hPa | - | 2.68 m/s, 60° | - | - |
| 1778026722 | 11.11° C | 88% | 1013 hPa | - | 2.68 m/s, 40° | - | - |
| 1778025822 | 11.11° C | 88% | 1013 hPa | - | 2.68 m/s, 40° | - | - |
| 1778024921 | 11.11° C | 88% | 1013 hPa | - | 2.68 m/s, 70° | - | - |
| 1778024021 | 11.11° C | 88% | 1013 hPa | - | 2.68 m/s, 70° | - | - |
| 1778023121 | 11.11° C | 88% | 1014 hPa | - | 3.13 m/s, 70° | - | - |
| 1778022222 | 11.11° C | 88% | 1014 hPa | - | 3.13 m/s, 70° | - | - |
| 1778021322 | 12.22° C | 82% | 1014 hPa | - | 2.68 m/s, 70° | - | - |
| 1778020421 | 12.22° C | 82% | 1014 hPa | - | 2.68 m/s, 70° | - | - |
| 1778019519 | 12.22° C | 82% | 1014 hPa | - | 2.68 m/s, 110° | - | - |
| 1778018622 | 12.22° C | 82% | 1014 hPa | - | 2.68 m/s, 110° | - | - |
| 1778017722 | 12.22° C | 82% | 1014 hPa | - | 2.24 m/s, 90° | - | - |
| 1778016821 | 12.22° C | 82% | 1014 hPa | - | 2.24 m/s, 90° | - | - |
| 1778015921 | 15° C | 63% | 1014 hPa | - | 1.34 m/s, 300° | - | - |
| 1778015022 | 15° C | 63% | 1014 hPa | - | 1.34 m/s, 300° | - | - |
| 1778014123 | 16.11° C | 59% | 1013 hPa | - | 2.24 m/s, 160° | - | - |
| 1778013221 | 16.11° C | 59% | 1013 hPa | - | 2.24 m/s, 160° | - | - |
| 1778012352 | 16.11° C | 59% | 1013 hPa | - | 2.68 m/s, 160° | - | - |
| 1778011422 | 16.11° C | 59% | 1013 hPa | - | 2.68 m/s, 160° | - | - |
| 1778010521 | 17.22° C | 56% | 1013 hPa | - | 2.68 m/s, 180° | - | - |
| 1778009621 | 17.22° C | 56% | 1013 hPa | - | 2.68 m/s, 180° | - | - |
| 1778008721 | 17.78° C | 52% | 1013 hPa | - | 2.24 m/s, 180° | - | - |
| 1778007821 | 17.78° C | 52% | 1013 hPa | - | 2.24 m/s, 180° | - | - |
* Rain since midnight (hover to see other rain measurements)
** Current wind speed in m/s (hover to see current wind gust speed)